sensor_id;sensor_type;location;lat;lon;timestamp;P1;P2;P0
23240;PMS7003;11789;53.482;9.862;2024-02-23T00:00:49;0.00;0.00;0.00
23240;PMS7003;11789;53.482;9.862;2024-02-23T00:03:14;0.00;0.00;0.00
23240;PMS7003;11789;53.482;9.862;2024-02-23T00:05:39;0.75;0.75;0.00
23240;PMS7003;11789;53.482;9.862;2024-02-23T00:08:06;1.00;1.00;1.00
23240;PMS7003;11789;53.482;9.862;2024-02-23T00:10:32;1.25;1.25;1.25
23240;PMS7003;11789;53.482;9.862;2024-02-23T00:12:57;3.25;3.00;2.25
23240;PMS7003;11789;53.482;9.862;2024-02-23T00:15:23;2.25;2.25;2.00
23240;PMS7003;11789;53.482;9.862;2024-02-23T00:17:50;2.00;2.00;1.75
23240;PMS7003;11789;53.482;9.862;2024-02-23T00:20:15;2.00;2.00;1.25
23240;PMS7003;11789;53.482;9.862;2024-02-23T00:22:41;3.00;1.00;1.00
23240;PMS7003;11789;53.482;9.862;2024-02-23T00:25:06;1.00;1.00;1.00
23240;PMS7003;11789;53.482;9.862;2024-02-23T00:27:32;1.00;1.00;1.00
23240;PMS7003;11789;53.482;9.862;2024-02-23T00:29:58;1.00;1.00;0.25
23240;PMS7003;11789;53.482;9.862;2024-02-23T00:32:24;2.00;1.00;1.00
23240;PMS7003;11789;53.482;9.862;2024-02-23T00:34:50;0.00;0.00;0.00
23240;PMS7003;11789;53.482;9.862;2024-02-23T00:37:15;0.25;0.25;0.00
23240;PMS7003;11789;53.482;9.862;2024-02-23T00:39:41;0.00;0.00;0.00
23240;PMS7003;11789;53.482;9.862;2024-02-23T00:42:06;0.00;0.00;0.00
23240;PMS7003;11789;53.482;9.862;2024-02-23T00:44:32;0.00;0.00;0.00
23240;PMS7003;11789;53.482;9.862;2024-02-23T00:46:58;0.00;0.00;0.00
23240;PMS7003;11789;53.482;9.862;2024-02-23T00:49:26;0.00;0.00;0.00
23240;PMS7003;11789;53.482;9.862;2024-02-23T00:51:52;0.00;0.00;0.00
23240;PMS7003;11789;53.482;9.862;2024-02-23T00:54:18;0.00;0.00;0.00
23240;PMS7003;11789;53.482;9.862;2024-02-23T00:56:43;0.00;0.00;0.00
23240;PMS7003;11789;53.482;9.862;2024-02-23T00:59:10;0.00;0.00;0.00
23240;PMS7003;11789;53.482;9.862;2024-02-23T01:01:35;0.00;0.00;0.00
23240;PMS7003;11789;53.482;9.862;2024-02-23T01:04:01;0.00;0.00;0.00
23240;PMS7003;11789;53.482;9.862;2024-02-23T01:06:26;0.00;0.00;0.00
23240;PMS7003;11789;53.482;9.862;2024-02-23T01:08:53;0.00;0.00;0.00
23240;PMS7003;11789;53.482;9.862;2024-02-23T01:11:18;0.00;0.00;0.00
23240;PMS7003;11789;53.482;9.862;2024-02-23T01:13:44;0.00;0.00;0.00
23240;PMS7003;11789;53.482;9.862;2024-02-23T01:16:09;0.00;0.00;0.00
23240;PMS7003;11789;53.482;9.862;2024-02-23T01:18:35;0.00;0.00;0.00
23240;PMS7003;11789;53.482;9.862;2024-02-23T01:21:00;0.00;0.00;0.00
23240;PMS7003;11789;53.482;9.862;2024-02-23T01:23:26;0.00;0.00;0.00
23240;PMS7003;11789;53.482;9.862;2024-02-23T01:25:51;0.00;0.00;0.00
23240;PMS7003;11789;53.482;9.862;2024-02-23T01:28:17;0.00;0.00;0.00
23240;PMS7003;11789;53.482;9.862;2024-02-23T01:30:42;2.50;0.00;0.00
23240;PMS7003;11789;53.482;9.862;2024-02-23T01:33:08;0.00;0.00;0.00
23240;PMS7003;11789;53.482;9.862;2024-02-23T01:35:33;0.00;0.00;0.00
23240;PMS7003;11789;53.482;9.862;2024-02-23T01:37:59;0.50;0.50;0.50
23240;PMS7003;11789;53.482;9.862;2024-02-23T01:40:24;0.00;0.00;0.00
23240;PMS7003;11789;53.482;9.862;2024-02-23T01:42:59;0.00;0.00;0.00
23240;PMS7003;11789;53.482;9.862;2024-02-23T01:45:28;0.00;0.00;0.00
23240;PMS7003;11789;53.482;9.862;2024-02-23T01:47:55;0.00;0.00;0.00
23240;PMS7003;11789;53.482;9.862;2024-02-23T01:50:20;1.00;0.00;0.00
23240;PMS7003;11789;53.482;9.862;2024-02-23T01:52:46;0.00;0.00;0.00
23240;PMS7003;11789;53.482;9.862;2024-02-23T01:55:11;0.00;0.00;0.00
23240;PMS7003;11789;53.482;9.862;2024-02-23T01:57:37;0.00;0.00;0.00
23240;PMS7003;11789;53.482;9.862;2024-02-23T02:00:02;0.00;0.00;0.00
23240;PMS7003;11789;53.482;9.862;2024-02-23T02:02:29;0.00;0.00;0.00
23240;PMS7003;11789;53.482;9.862;2024-02-23T02:04:55;0.00;0.00;0.00
23240;PMS7003;11789;53.482;9.862;2024-02-23T02:07:21;0.00;0.00;0.00
23240;PMS7003;11789;53.482;9.862;2024-02-23T02:09:47;0.00;0.00;0.00
23240;PMS7003;11789;53.482;9.862;2024-02-23T02:12:13;1.00;0.00;0.00
23240;PMS7003;11789;53.482;9.862;2024-02-23T02:14:38;0.00;0.00;0.00
23240;PMS7003;11789;53.482;9.862;2024-02-23T02:17:04;0.00;0.00;0.00
23240;PMS7003;11789;53.482;9.862;2024-02-23T02:19:29;0.00;0.00;0.00
23240;PMS7003;11789;53.482;9.862;2024-02-23T02:21:55;0.00;0.00;0.00
23240;PMS7003;11789;53.482;9.862;2024-02-23T02:24:21;1.00;0.00;0.00
23240;PMS7003;11789;53.482;9.862;2024-02-23T02:26:47;0.00;0.00;0.00
23240;PMS7003;11789;53.482;9.862;2024-02-23T02:29:15;0.00;0.00;0.00
23240;PMS7003;11789;53.482;9.862;2024-02-23T02:31:40;0.00;0.00;0.00
23240;PMS7003;11789;53.482;9.862;2024-02-23T02:34:06;0.00;0.00;0.00
23240;PMS7003;11789;53.482;9.862;2024-02-23T02:36:31;0.00;0.00;0.00
23240;PMS7003;11789;53.482;9.862;2024-02-23T02:38:57;0.00;0.00;0.00
23240;PMS7003;11789;53.482;9.862;2024-02-23T02:41:23;0.00;0.00;0.00
23240;PMS7003;11789;53.482;9.862;2024-02-23T02:43:52;0.00;0.00;0.00
23240;PMS7003;11789;53.482;9.862;2024-02-23T02:46:18;0.00;0.00;0.00
23240;PMS7003;11789;53.482;9.862;2024-02-23T02:48:43;0.00;0.00;0.00
23240;PMS7003;11789;53.482;9.862;2024-02-23T02:51:09;0.00;0.00;0.00
23240;PMS7003;11789;53.482;9.862;2024-02-23T02:53:35;0.00;0.00;0.00
23240;PMS7003;11789;53.482;9.862;2024-02-23T02:56:00;0.00;0.00;0.00
23240;PMS7003;11789;53.482;9.862;2024-02-23T02:58:26;0.50;0.00;0.00
23240;PMS7003;11789;53.482;9.862;2024-02-23T03:00:51;0.00;0.00;0.00
23240;PMS7003;11789;53.482;9.862;2024-02-23T03:03:16;0.00;0.00;0.00
23240;PMS7003;11789;53.482;9.862;2024-02-23T03:05:42;0.00;0.00;0.00
23240;PMS7003;11789;53.482;9.862;2024-02-23T03:08:07;0.00;0.00;0.00
23240;PMS7003;11789;53.482;9.862;2024-02-23T03:10:33;0.00;0.00;0.00
23240;PMS7003;11789;53.482;9.862;2024-02-23T03:12:58;1.75;0.00;0.00
23240;PMS7003;11789;53.482;9.862;2024-02-23T03:15:24;0.00;0.00;0.00
23240;PMS7003;11789;53.482;9.862;2024-02-23T03:17:49;1.00;1.00;0.25
23240;PMS7003;11789;53.482;9.862;2024-02-23T03:20:15;0.00;0.00;0.00
23240;PMS7003;11789;53.482;9.862;2024-02-23T03:22:40;1.00;1.00;1.00
23240;PMS7003;11789;53.482;9.862;2024-02-23T03:25:06;1.00;1.00;1.00
23240;PMS7003;11789;53.482;9.862;2024-02-23T03:27:37;0.00;0.00;0.00
23240;PMS7003;11789;53.482;9.862;2024-02-23T03:30:03;1.00;1.00;0.50
23240;PMS7003;11789;53.482;9.862;2024-02-23T03:32:30;0.00;0.00;0.00
23240;PMS7003;11789;53.482;9.862;2024-02-23T03:35:01;0.00;0.00;0.00
23240;PMS7003;11789;53.482;9.862;2024-02-23T03:37:27;0.50;0.50;0.00
23240;PMS7003;11789;53.482;9.862;2024-02-23T03:39:52;0.00;0.00;0.00
23240;PMS7003;11789;53.482;9.862;2024-02-23T03:42:18;0.00;0.00;0.00
23240;PMS7003;11789;53.482;9.862;2024-02-23T03:44:43;0.00;0.00;0.00
23240;PMS7003;11789;53.482;9.862;2024-02-23T03:47:09;1.00;0.00;0.00
23240;PMS7003;11789;53.482;9.862;2024-02-23T03:49:34;0.00;0.00;0.00
23240;PMS7003;11789;53.482;9.862;2024-02-23T03:51:59;0.00;0.00;0.00
23240;PMS7003;11789;53.482;9.862;2024-02-23T03:54:25;0.00;0.00;0.00
23240;PMS7003;11789;53.482;9.862;2024-02-23T03:56:50;0.00;0.00;0.00
23240;PMS7003;11789;53.482;9.862;2024-02-23T03:59:16;0.00;0.00;0.00
23240;PMS7003;11789;53.482;9.862;2024-02-23T04:01:41;0.00;0.00;0.00
23240;PMS7003;11789;53.482;9.862;2024-02-23T04:04:07;0.00;0.00;0.00
23240;PMS7003;11789;53.482;9.862;2024-02-23T04:06:33;0.00;0.00;0.00
23240;PMS7003;11789;53.482;9.862;2024-02-23T04:08:59;0.00;0.00;0.00
23240;PMS7003;11789;53.482;9.862;2024-02-23T04:11:24;0.50;0.50;0.50
23240;PMS7003;11789;53.482;9.862;2024-02-23T04:13:50;0.00;0.00;0.00
23240;PMS7003;11789;53.482;9.862;2024-02-23T04:16:15;0.00;0.00;0.00
23240;PMS7003;11789;53.482;9.862;2024-02-23T04:18:41;0.00;0.00;0.00
23240;PMS7003;11789;53.482;9.862;2024-02-23T04:21:06;0.00;0.00;0.00
23240;PMS7003;11789;53.482;9.862;2024-02-23T04:23:32;0.00;0.00;0.00
23240;PMS7003;11789;53.482;9.862;2024-02-23T04:25:58;0.00;0.00;0.00
23240;PMS7003;11789;53.482;9.862;2024-02-23T04:28:24;0.00;0.00;0.00
23240;PMS7003;11789;53.482;9.862;2024-02-23T04:30:51;0.00;0.00;0.00
23240;PMS7003;11789;53.482;9.862;2024-02-23T04:33:17;0.25;0.25;0.00
23240;PMS7003;11789;53.482;9.862;2024-02-23T04:35:42;0.25;0.25;0.25
23240;PMS7003;11789;53.482;9.862;2024-02-23T04:38:08;2.00;0.00;0.00
23240;PMS7003;11789;53.482;9.862;2024-02-23T04:40:33;1.00;1.00;1.00
23240;PMS7003;11789;53.482;9.862;2024-02-23T04:42:58;0.75;0.75;0.00
23240;PMS7003;11789;53.482;9.862;2024-02-23T04:45:24;1.00;1.00;1.00
23240;PMS7003;11789;53.482;9.862;2024-02-23T04:47:49;1.00;1.00;1.00
23240;PMS7003;11789;53.482;9.862;2024-02-23T04:50:15;2.00;1.75;1.00
23240;PMS7003;11789;53.482;9.862;2024-02-23T04:52:40;1.00;1.00;1.00
23240;PMS7003;11789;53.482;9.862;2024-02-23T04:55:06;1.25;1.25;1.00
23240;PMS7003;11789;53.482;9.862;2024-02-23T04:57:31;2.00;0.75;0.75
23240;PMS7003;11789;53.482;9.862;2024-02-23T04:59:57;2.75;2.00;1.75
23240;PMS7003;11789;53.482;9.862;2024-02-23T05:02:22;1.00;1.00;0.75
23240;PMS7003;11789;53.482;9.862;2024-02-23T05:04:48;1.00;1.00;0.00
23240;PMS7003;11789;53.482;9.862;2024-02-23T05:07:13;2.25;2.00;2.00
23240;PMS7003;11789;53.482;9.862;2024-02-23T05:09:39;3.00;1.00;1.00
23240;PMS7003;11789;53.482;9.862;2024-02-23T05:12:06;2.00;2.00;2.00
23240;PMS7003;11789;53.482;9.862;2024-02-23T05:14:32;3.75;1.50;1.25
23240;PMS7003;11789;53.482;9.862;2024-02-23T05:16:58;2.25;2.25;2.00
23240;PMS7003;11789;53.482;9.862;2024-02-23T05:19:23;2.50;2.50;2.00
23240;PMS7003;11789;53.482;9.862;2024-02-23T05:21:49;2.00;2.00;2.00
23240;PMS7003;11789;53.482;9.862;2024-02-23T05:24:14;2.25;2.25;2.00
23240;PMS7003;11789;53.482;9.862;2024-02-23T05:26:40;4.00;2.00;2.00
23240;PMS7003;11789;53.482;9.862;2024-02-23T05:29:06;4.50;3.00;2.00
23240;PMS7003;11789;53.482;9.862;2024-02-23T05:31:45;2.00;2.00;2.00
23240;PMS7003;11789;53.482;9.862;2024-02-23T05:34:14;3.50;3.00;2.00
23240;PMS7003;11789;53.482;9.862;2024-02-23T05:36:40;1.00;0.00;0.00
23240;PMS7003;11789;53.482;9.862;2024-02-23T05:39:05;3.00;1.00;1.00
23240;PMS7003;11789;53.482;9.862;2024-02-23T05:41:32;3.00;3.00;2.00
23240;PMS7003;11789;53.482;9.862;2024-02-23T05:43:58;1.50;1.50;1.00
23240;PMS7003;11789;53.482;9.862;2024-02-23T05:46:24;2.25;2.00;1.00
23240;PMS7003;11789;53.482;9.862;2024-02-23T05:48:49;2.00;2.00;1.75
23240;PMS7003;11789;53.482;9.862;2024-02-23T05:51:14;2.50;2.50;2.00
23240;PMS7003;11789;53.482;9.862;2024-02-23T05:53:40;2.00;1.75;1.75
23240;PMS7003;11789;53.482;9.862;2024-02-23T05:56:06;1.00;1.00;1.00
23240;PMS7003;11789;53.482;9.862;2024-02-23T05:58:31;2.00;2.00;1.00
23240;PMS7003;11789;53.482;9.862;2024-02-23T06:00:57;1.00;1.00;0.75
23240;PMS7003;11789;53.482;9.862;2024-02-23T06:03:22;1.00;1.00;1.00
23240;PMS7003;11789;53.482;9.862;2024-02-23T06:05:47;1.00;1.00;1.00
23240;PMS7003;11789;53.482;9.862;2024-02-23T06:08:13;1.25;1.25;1.00
23240;PMS7003;11789;53.482;9.862;2024-02-23T06:10:38;1.00;1.00;1.00
23240;PMS7003;11789;53.482;9.862;2024-02-23T06:13:04;1.00;1.00;1.00
23240;PMS7003;11789;53.482;9.862;2024-02-23T06:15:29;0.75;0.00;0.00
23240;PMS7003;11789;53.482;9.862;2024-02-23T06:17:55;1.00;1.00;1.00
23240;PMS7003;11789;53.482;9.862;2024-02-23T06:20:20;2.00;2.00;1.00
23240;PMS7003;11789;53.482;9.862;2024-02-23T06:22:46;2.00;2.00;1.00
23240;PMS7003;11789;53.482;9.862;2024-02-23T06:25:11;2.25;1.00;1.00
23240;PMS7003;11789;53.482;9.862;2024-02-23T06:27:37;1.00;0.75;0.00
23240;PMS7003;11789;53.482;9.862;2024-02-23T06:30:03;3.00;3.00;2.00
23240;PMS7003;11789;53.482;9.862;2024-02-23T06:32:29;1.00;1.00;1.00
23240;PMS7003;11789;53.482;9.862;2024-02-23T06:34:55;3.25;1.75;1.00
23240;PMS7003;11789;53.482;9.862;2024-02-23T06:37:20;1.25;1.25;1.00
23240;PMS7003;11789;53.482;9.862;2024-02-23T06:39:46;3.00;2.00;2.00
23240;PMS7003;11789;53.482;9.862;2024-02-23T06:42:16;3.00;3.00;2.00
23240;PMS7003;11789;53.482;9.862;2024-02-23T06:44:41;1.50;1.00;1.00
23240;PMS7003;11789;53.482;9.862;2024-02-23T06:47:07;7.25;3.00;2.00
23240;PMS7003;11789;53.482;9.862;2024-02-23T06:49:32;2.50;2.50;2.00
23240;PMS7003;11789;53.482;9.862;2024-02-23T06:51:58;3.00;3.00;2.00
23240;PMS7003;11789;53.482;9.862;2024-02-23T06:54:23;2.75;2.75;1.75
23240;PMS7003;11789;53.482;9.862;2024-02-23T06:56:48;4.00;2.50;2.00
23240;PMS7003;11789;53.482;9.862;2024-02-23T06:59:14;4.50;2.00;1.75
23240;PMS7003;11789;53.482;9.862;2024-02-23T07:01:49;3.00;3.00;2.00
23240;PMS7003;11789;53.482;9.862;2024-02-23T07:04:16;2.25;2.25;2.00
23240;PMS7003;11789;53.482;9.862;2024-02-23T07:06:41;3.00;3.00;2.00
23240;PMS7003;11789;53.482;9.862;2024-02-23T07:09:07;3.50;3.50;3.00
23240;PMS7003;11789;53.482;9.862;2024-02-23T07:11:33;3.00;3.00;3.00
23240;PMS7003;11789;53.482;9.862;2024-02-23T07:13:58;4.00;4.00;3.00
23240;PMS7003;11789;53.482;9.862;2024-02-23T07:16:24;3.00;3.00;2.25
23240;PMS7003;11789;53.482;9.862;2024-02-23T07:18:49;3.00;3.00;2.75
23240;PMS7003;11789;53.482;9.862;2024-02-23T07:21:17;3.00;3.00;3.00
23240;PMS7003;11789;53.482;9.862;2024-02-23T07:23:43;3.00;3.00;2.00
23240;PMS7003;11789;53.482;9.862;2024-02-23T07:26:08;4.50;3.00;3.00
23240;PMS7003;11789;53.482;9.862;2024-02-23T07:28:33;2.75;2.00;2.00
23240;PMS7003;11789;53.482;9.862;2024-02-23T07:30:59;2.75;2.25;2.00
23240;PMS7003;11789;53.482;9.862;2024-02-23T07:33:24;5.25;3.00;2.00
23240;PMS7003;11789;53.482;9.862;2024-02-23T07:35:50;3.00;3.00;3.00
23240;PMS7003;11789;53.482;9.862;2024-02-23T07:38:15;7.75;3.50;3.00
23240;PMS7003;11789;53.482;9.862;2024-02-23T07:40:42;4.00;2.25;1.50
23240;PMS7003;11789;53.482;9.862;2024-02-23T07:43:09;3.00;3.00;2.00
23240;PMS7003;11789;53.482;9.862;2024-02-23T07:45:36;4.00;4.00;2.00
23240;PMS7003;11789;53.482;9.862;2024-02-23T07:48:02;4.75;2.00;2.00
23240;PMS7003;11789;53.482;9.862;2024-02-23T07:50:28;1.75;1.75;1.50
23240;PMS7003;11789;53.482;9.862;2024-02-23T07:52:53;2.00;2.00;1.50
23240;PMS7003;11789;53.482;9.862;2024-02-23T07:55:19;2.25;2.25;2.00
23240;PMS7003;11789;53.482;9.862;2024-02-23T07:57:44;5.50;2.00;1.75
23240;PMS7003;11789;53.482;9.862;2024-02-23T08:00:10;2.00;2.00;1.00
23240;PMS7003;11789;53.482;9.862;2024-02-23T08:02:36;2.00;2.00;1.00
23240;PMS7003;11789;53.482;9.862;2024-02-23T08:05:01;3.25;2.00;1.00
23240;PMS7003;11789;53.482;9.862;2024-02-23T08:07:27;3.50;2.00;1.00
23240;PMS7003;11789;53.482;9.862;2024-02-23T08:09:53;2.00;2.00;1.00
23240;PMS7003;11789;53.482;9.862;2024-02-23T08:12:19;3.75;2.50;1.75
23240;PMS7003;11789;53.482;9.862;2024-02-23T08:14:44;4.75;2.00;2.00
23240;PMS7003;11789;53.482;9.862;2024-02-23T08:17:11;2.75;2.75;2.00
23240;PMS7003;11789;53.482;9.862;2024-02-23T08:19:37;3.00;1.25;1.00
23240;PMS7003;11789;53.482;9.862;2024-02-23T08:22:02;1.00;1.00;1.00
23240;PMS7003;11789;53.482;9.862;2024-02-23T08:24:28;4.00;1.00;1.00
23240;PMS7003;11789;53.482;9.862;2024-02-23T08:26:53;3.00;1.00;1.00
23240;PMS7003;11789;53.482;9.862;2024-02-23T08:29:19;3.00;2.00;1.00
23240;PMS7003;11789;53.482;9.862;2024-02-23T08:31:44;3.75;2.00;2.00
23240;PMS7003;11789;53.482;9.862;2024-02-23T08:34:10;2.00;2.00;1.75
23240;PMS7003;11789;53.482;9.862;2024-02-23T08:36:35;2.00;2.00;1.00
23240;PMS7003;11789;53.482;9.862;2024-02-23T08:39:01;2.50;1.00;1.00
23240;PMS7003;11789;53.482;9.862;2024-02-23T08:41:26;1.25;1.25;1.00
23240;PMS7003;11789;53.482;9.862;2024-02-23T08:43:52;2.50;2.00;2.00
23240;PMS7003;11789;53.482;9.862;2024-02-23T08:46:17;2.50;2.00;1.75
23240;PMS7003;11789;53.482;9.862;2024-02-23T08:48:44;5.00;2.00;2.00
23240;PMS7003;11789;53.482;9.862;2024-02-23T08:51:10;1.75;1.75;1.50
23240;PMS7003;11789;53.482;9.862;2024-02-23T08:53:35;1.00;1.00;1.00
23240;PMS7003;11789;53.482;9.862;2024-02-23T08:56:01;1.00;1.00;0.25
23240;PMS7003;11789;53.482;9.862;2024-02-23T08:58:26;1.50;1.50;1.00
23240;PMS7003;11789;53.482;9.862;2024-02-23T09:00:52;2.00;2.00;1.25
23240;PMS7003;11789;53.482;9.862;2024-02-23T09:03:17;2.00;2.00;1.00
23240;PMS7003;11789;53.482;9.862;2024-02-23T09:05:43;2.00;2.00;1.00
23240;PMS7003;11789;53.482;9.862;2024-02-23T09:08:08;2.25;1.75;1.00
23240;PMS7003;11789;53.482;9.862;2024-02-23T09:10:33;2.75;2.00;1.00
23240;PMS7003;11789;53.482;9.862;2024-02-23T09:12:59;1.50;1.00;1.00
23240;PMS7003;11789;53.482;9.862;2024-02-23T09:15:24;2.50;2.00;2.00
23240;PMS7003;11789;53.482;9.862;2024-02-23T09:17:50;2.00;2.00;2.00
23240;PMS7003;11789;53.482;9.862;2024-02-23T09:20:15;2.50;1.50;1.50
23240;PMS7003;11789;53.482;9.862;2024-02-23T09:22:41;3.00;3.00;2.00
23240;PMS7003;11789;53.482;9.862;2024-02-23T09:25:06;1.50;1.50;1.00
23240;PMS7003;11789;53.482;9.862;2024-02-23T09:27:33;1.50;1.50;1.00
23240;PMS7003;11789;53.482;9.862;2024-02-23T09:30:01;2.00;2.00;1.25
23240;PMS7003;11789;53.482;9.862;2024-02-23T09:32:27;3.50;2.00;1.00
23240;PMS7003;11789;53.482;9.862;2024-02-23T09:34:52;3.00;3.00;2.00
23240;PMS7003;11789;53.482;9.862;2024-02-23T09:37:18;3.00;2.00;2.00
23240;PMS7003;11789;53.482;9.862;2024-02-23T09:39:43;2.75;2.75;2.00
23240;PMS7003;11789;53.482;9.862;2024-02-23T09:42:09;2.50;2.50;2.00
23240;PMS7003;11789;53.482;9.862;2024-02-23T09:44:36;3.00;3.00;2.00
23240;PMS7003;11789;53.482;9.862;2024-02-23T09:47:02;2.25;2.25;2.25
23240;PMS7003;11789;53.482;9.862;2024-02-23T09:49:39;3.00;3.00;2.00
23240;PMS7003;11789;53.482;9.862;2024-02-23T09:52:09;3.00;3.00;2.00
23240;PMS7003;11789;53.482;9.862;2024-02-23T09:54:36;4.75;3.00;3.00
23240;PMS7003;11789;53.482;9.862;2024-02-23T09:57:04;2.00;2.00;2.00
23240;PMS7003;11789;53.482;9.862;2024-02-23T09:59:33;2.25;2.25;2.00
23240;PMS7003;11789;53.482;9.862;2024-02-23T10:01:59;3.00;3.00;2.75
23240;PMS7003;11789;53.482;9.862;2024-02-23T10:04:25;6.50;3.00;2.00
23240;PMS7003;11789;53.482;9.862;2024-02-23T10:06:54;3.00;3.00;2.50
23240;PMS7003;11789;53.482;9.862;2024-02-23T10:09:20;3.75;3.75;2.75
23240;PMS7003;11789;53.482;9.862;2024-02-23T10:11:51;5.00;3.00;3.00
23240;PMS7003;11789;53.482;9.862;2024-02-23T10:14:18;3.25;3.00;2.50
23240;PMS7003;11789;53.482;9.862;2024-02-23T10:16:43;3.00;3.00;2.00
23240;PMS7003;11789;53.482;9.862;2024-02-23T10:19:09;4.50;3.00;3.00
23240;PMS7003;11789;53.482;9.862;2024-02-23T10:21:34;4.00;2.50;2.00
23240;PMS7003;11789;53.482;9.862;2024-02-23T10:24:00;3.25;3.25;2.25
23240;PMS7003;11789;53.482;9.862;2024-02-23T10:26:26;4.25;2.50;2.00
23240;PMS7003;11789;53.482;9.862;2024-02-23T10:28:52;4.00;2.25;2.00
23240;PMS7003;11789;53.482;9.862;2024-02-23T10:31:18;4.00;2.75;2.00
23240;PMS7003;11789;53.482;9.862;2024-02-23T10:33:46;2.00;2.00;1.75
23240;PMS7003;11789;53.482;9.862;2024-02-23T10:36:15;2.00;2.00;1.00
23240;PMS7003;11789;53.482;9.862;2024-02-23T10:38:43;3.00;2.25;2.00
23240;PMS7003;11789;53.482;9.862;2024-02-23T10:41:12;3.00;3.00;2.75
23240;PMS7003;11789;53.482;9.862;2024-02-23T10:43:45;1.50;1.50;1.00
23240;PMS7003;11789;53.482;9.862;2024-02-23T10:46:12;2.50;2.50;2.00
23240;PMS7003;11789;53.482;9.862;2024-02-23T10:48:42;2.00;2.00;2.00
23240;PMS7003;11789;53.482;9.862;2024-02-23T10:51:09;2.00;2.00;2.00
23240;PMS7003;11789;53.482;9.862;2024-02-23T10:53:35;3.50;1.00;1.00
23240;PMS7003;11789;53.482;9.862;2024-02-23T10:56:01;2.00;2.00;1.00
23240;PMS7003;11789;53.482;9.862;2024-02-23T10:58:29;5.00;2.00;2.00
23240;PMS7003;11789;53.482;9.862;2024-02-23T11:00:59;3.50;2.00;1.00
23240;PMS7003;11789;53.482;9.862;2024-02-23T11:03:28;1.25;1.25;1.00
23240;PMS7003;11789;53.482;9.862;2024-02-23T11:05:55;1.00;1.00;1.00
23240;PMS7003;11789;53.482;9.862;2024-02-23T11:08:21;1.00;1.00;1.00
23240;PMS7003;11789;53.482;9.862;2024-02-23T11:10:50;1.00;1.00;1.00
23240;PMS7003;11789;53.482;9.862;2024-02-23T11:13:17;1.75;1.75;1.00
23240;PMS7003;11789;53.482;9.862;2024-02-23T11:15:42;3.00;1.25;1.00
23240;PMS7003;11789;53.482;9.862;2024-02-23T11:18:27;5.00;3.00;1.75
23240;PMS7003;11789;53.482;9.862;2024-02-23T11:20:54;2.00;2.00;1.00
23240;PMS7003;11789;53.482;9.862;2024-02-23T11:23:23;2.25;1.00;1.00
23240;PMS7003;11789;53.482;9.862;2024-02-23T11:28:48;3.00;1.50;1.00
23240;PMS7003;11789;53.482;9.862;2024-02-23T11:31:15;1.00;1.00;1.00
23240;PMS7003;11789;53.482;9.862;2024-02-23T11:36:27;2.75;2.00;1.75
23240;PMS7003;11789;53.482;9.862;2024-02-23T11:38:54;0.00;0.00;0.00
23240;PMS7003;11789;53.482;9.862;2024-02-23T11:41:21;0.50;0.50;0.50
23240;PMS7003;11789;53.482;9.862;2024-02-23T11:43:51;4.00;2.25;2.00
23240;PMS7003;11789;53.482;9.862;2024-02-23T11:46:17;1.75;1.75;1.00
23240;PMS7003;11789;53.482;9.862;2024-02-23T11:48:43;3.00;1.50;1.00
23240;PMS7003;11789;53.482;9.862;2024-02-23T11:51:15;3.00;1.00;0.25
23240;PMS7003;11789;53.482;9.862;2024-02-23T11:53:41;2.50;1.75;1.00
23240;PMS7003;11789;53.482;9.862;2024-02-23T11:56:07;1.00;1.00;1.00
23240;PMS7003;11789;53.482;9.862;2024-02-23T11:58:33;2.75;1.00;1.00
23240;PMS7003;11789;53.482;9.862;2024-02-23T12:00:59;3.00;1.00;1.00
23240;PMS7003;11789;53.482;9.862;2024-02-23T12:03:28;1.00;1.00;1.00
23240;PMS7003;11789;53.482;9.862;2024-02-23T12:05:58;4.00;1.00;1.00
23240;PMS7003;11789;53.482;9.862;2024-02-23T12:08:26;2.25;1.00;0.50
23240;PMS7003;11789;53.482;9.862;2024-02-23T12:10:55;2.50;0.75;0.75
23240;PMS7003;11789;53.482;9.862;2024-02-23T12:13:22;2.25;0.75;0.25
23240;PMS7003;11789;53.482;9.862;2024-02-23T12:15:48;2.75;1.00;1.00
23240;PMS7003;11789;53.482;9.862;2024-02-23T12:18:14;1.00;1.00;0.00
23240;PMS7003;11789;53.482;9.862;2024-02-23T12:20:42;1.75;1.00;0.00
23240;PMS7003;11789;53.482;9.862;2024-02-23T12:23:07;1.00;1.00;1.00
23240;PMS7003;11789;53.482;9.862;2024-02-23T12:25:33;2.50;2.00;1.00
23240;PMS7003;11789;53.482;9.862;2024-02-23T12:27:58;2.25;1.00;1.00
23240;PMS7003;11789;53.482;9.862;2024-02-23T12:30:25;1.75;1.00;1.00
23240;PMS7003;11789;53.482;9.862;2024-02-23T12:33:02;0.50;0.50;0.50
23240;PMS7003;11789;53.482;9.862;2024-02-23T12:35:29;1.00;1.00;1.00
23240;PMS7003;11789;53.482;9.862;2024-02-23T12:37:54;1.00;1.00;1.00
23240;PMS7003;11789;53.482;9.862;2024-02-23T12:40:20;1.50;1.00;1.00
23240;PMS7003;11789;53.482;9.862;2024-02-23T12:42:45;0.75;0.75;0.75
23240;PMS7003;11789;53.482;9.862;2024-02-23T12:45:13;2.75;2.00;1.75
23240;PMS7003;11789;53.482;9.862;2024-02-23T12:47:39;0.00;0.00;0.00
23240;PMS7003;11789;53.482;9.862;2024-02-23T12:50:05;3.00;1.75;1.00
23240;PMS7003;11789;53.482;9.862;2024-02-23T12:52:31;1.00;1.00;0.50
23240;PMS7003;11789;53.482;9.862;2024-02-23T12:54:56;4.25;1.00;1.00
23240;PMS7003;11789;53.482;9.862;2024-02-23T12:57:22;1.25;1.25;0.00
23240;PMS7003;11789;53.482;9.862;2024-02-23T12:59:47;5.00;2.00;1.00
23240;PMS7003;11789;53.482;9.862;2024-02-23T13:02:13;1.00;1.00;0.50
23240;PMS7003;11789;53.482;9.862;2024-02-23T13:04:38;1.00;1.00;1.00
23240;PMS7003;11789;53.482;9.862;2024-02-23T13:07:04;2.00;2.00;1.00
23240;PMS7003;11789;53.482;9.862;2024-02-23T13:09:29;0.75;0.75;0.75
23240;PMS7003;11789;53.482;9.862;2024-02-23T13:11:55;1.00;0.00;0.00
23240;PMS7003;11789;53.482;9.862;2024-02-23T13:14:20;1.00;1.00;1.00
23240;PMS7003;11789;53.482;9.862;2024-02-23T13:16:45;1.50;0.00;0.00
23240;PMS7003;11789;53.482;9.862;2024-02-23T13:19:11;1.00;1.00;1.00
23240;PMS7003;11789;53.482;9.862;2024-02-23T13:21:36;1.00;1.00;1.00
23240;PMS7003;11789;53.482;9.862;2024-02-23T13:24:02;1.00;1.00;0.75
23240;PMS7003;11789;53.482;9.862;2024-02-23T13:26:28;1.00;1.00;0.25
23240;PMS7003;11789;53.482;9.862;2024-02-23T13:28:53;0.00;0.00;0.00
23240;PMS7003;11789;53.482;9.862;2024-02-23T13:31:19;0.00;0.00;0.00
23240;PMS7003;11789;53.482;9.862;2024-02-23T13:33:45;1.00;1.00;1.00
23240;PMS7003;11789;53.482;9.862;2024-02-23T13:36:10;1.00;0.00;0.00
23240;PMS7003;11789;53.482;9.862;2024-02-23T13:38:36;0.00;0.00;0.00
23240;PMS7003;11789;53.482;9.862;2024-02-23T13:41:04;1.00;1.00;0.75
23240;PMS7003;11789;53.482;9.862;2024-02-23T13:43:31;3.00;1.75;1.00
23240;PMS7003;11789;53.482;9.862;2024-02-23T13:45:56;1.00;1.00;0.50
23240;PMS7003;11789;53.482;9.862;2024-02-23T13:48:22;1.00;1.00;1.00
23240;PMS7003;11789;53.482;9.862;2024-02-23T13:50:47;0.75;0.75;0.00
23240;PMS7003;11789;53.482;9.862;2024-02-23T13:53:13;1.00;1.00;0.00
23240;PMS7003;11789;53.482;9.862;2024-02-23T13:55:39;1.50;0.00;0.00
23240;PMS7003;11789;53.482;9.862;2024-02-23T13:58:07;2.00;0.50;0.00
23240;PMS7003;11789;53.482;9.862;2024-02-23T14:00:32;0.00;0.00;0.00
23240;PMS7003;11789;53.482;9.862;2024-02-23T14:02:57;0.00;0.00;0.00
23240;PMS7003;11789;53.482;9.862;2024-02-23T14:05:23;2.00;1.00;0.25
23240;PMS7003;11789;53.482;9.862;2024-02-23T14:07:50;1.25;0.00;0.00
23240;PMS7003;11789;53.482;9.862;2024-02-23T14:10:18;0.00;0.00;0.00
23240;PMS7003;11789;53.482;9.862;2024-02-23T14:12:43;0.75;0.75;0.00
23240;PMS7003;11789;53.482;9.862;2024-02-23T14:15:09;0.25;0.25;0.00
23240;PMS7003;11789;53.482;9.862;2024-02-23T14:17:35;0.00;0.00;0.00
23240;PMS7003;11789;53.482;9.862;2024-02-23T14:20:01;0.00;0.00;0.00
23240;PMS7003;11789;53.482;9.862;2024-02-23T14:22:27;0.25;0.00;0.00